Laird Hill, Texas
Current Conditions -  °F | °C
As of 3:53 PM on Tuesday 21 Oct 2014 (Local Time) from KGGG Reporting Station
Few Clouds Few Clouds  
Wind Chill: 79°   Ceiling: Unl
Heat Index: 80°   Visibility: 10mi
Dew Point: 61°   Wind: 3mph
Humidity: 54%   Direction: 50°NE
Pressure: 30.03"   Gusts: NA
Location:  32.35°N, 94.91°W
Report Text: KGGG 212053Z 05003KT 10SM FEW040 26/16 A3003 RMK AO2 SLP163 T02610161 56022
Loading
Personal Weather Stations






























Interactive Weather Map
Tropical Storm Tracking
New forecast layout! Learn more

10-Day Weather Forecast

Advertisements
Track Severe Weather on mobile